Terminal Aerodrome Forecast
Issued by NWS

Home | Current Version | Previous Version | Text Only | Print | Product List | Glossary On
Versions: 1 2 3 4 5 6 7 8 9 10 11 12 13 14 15 16
173
FTUS46 KLOX 021925 AAB
TAFVNY
TAF AMD
KVNY 021925Z 0219/0318 03020G30KT 6SM BLDU SCT030
     FM022100 03025G35KT P6SM SKC
     FM030500 01022G32KT P6SM SKC=

USA.gov is the U.S. government's official web portal to all federal, state and local government web resources and services.